createdAt,value
2023-05-04T00:01:05.434Z,92137.69
2023-05-04T00:03:38.650Z,92141.03
2023-05-04T00:06:11.087Z,92132.97
2023-05-04T00:08:43.374Z,92132.19
2023-05-04T00:11:16.714Z,92122.44
2023-05-04T00:13:49.013Z,92120.75
2023-05-04T00:16:21.326Z,92122.50
2023-05-04T00:18:54.289Z,92124.81
2023-05-04T00:21:26.668Z,92114.03
2023-05-04T00:23:59.189Z,92111.41
2023-05-04T00:26:31.474Z,92110.81
2023-05-04T00:29:03.729Z,92109.63
2023-05-04T00:31:36.084Z,92107.16
2023-05-04T00:34:09.127Z,92109.16
2023-05-04T00:36:41.922Z,92107.69
2023-05-04T00:39:14.721Z,92098.25
2023-05-04T00:41:47.004Z,92088.97
2023-05-04T00:44:22.708Z,92090.44
2023-05-04T00:46:55.613Z,92094.59
2023-05-04T00:49:28.905Z,92092.75
2023-05-04T00:52:02.732Z,92090.56
2023-05-04T00:54:35.180Z,92093.25
2023-05-04T00:57:07.792Z,92096.31
2023-05-04T00:59:40.379Z,92097.25
2023-05-04T01:02:12.852Z,92098.59
2023-05-04T01:04:46.141Z,92101.88
2023-05-04T01:07:25.987Z,92107.72
2023-05-04T01:10:04.446Z,92109.06
2023-05-04T01:12:40.948Z,92112.88
2023-05-04T01:15:14.054Z,92100.78
2023-05-04T01:17:46.500Z,92093.88
2023-05-04T01:20:20.428Z,92101.81
2023-05-04T01:22:53.402Z,92099.13
2023-05-04T01:25:30.500Z,92097.22
2023-05-04T01:28:07.419Z,92095.00
2023-05-04T01:30:43.678Z,92092.34
2023-05-04T01:33:16.833Z,92097.06
2023-05-04T01:35:49.961Z,92092.84
2023-05-04T01:38:23.366Z,92086.50
2023-05-04T01:40:56.253Z,92093.72
2023-05-04T01:43:28.567Z,92094.19
2023-05-04T01:46:01.011Z,92095.75
2023-05-04T01:48:33.327Z,92094.09
2023-05-04T01:51:05.789Z,92099.13
2023-05-04T01:53:38.720Z,92090.75
2023-05-04T01:56:11.058Z,92095.38
2023-05-04T01:58:43.362Z,92093.25
2023-05-04T02:01:15.709Z,92086.41
2023-05-04T02:03:48.236Z,92082.38
2023-05-04T02:06:20.690Z,92079.19
2023-05-04T02:08:53.682Z,92089.50
2023-05-04T02:11:25.974Z,92082.34
2023-05-04T02:13:59.043Z,92082.16
2023-05-04T02:16:31.391Z,92084.19
2023-05-04T02:19:03.773Z,92083.88
2023-05-04T02:21:36.103Z,92084.66
2023-05-04T02:24:09.142Z,92082.53
2023-05-04T02:26:41.426Z,92079.94
2023-05-04T02:29:14.258Z,92089.09
2023-05-04T02:31:46.643Z,92080.06
2023-05-04T02:34:19.811Z,92079.06
2023-05-04T02:36:55.179Z,92089.88
2023-05-04T02:39:28.113Z,92090.13
2023-05-04T02:42:00.806Z,92087.06
2023-05-04T02:44:33.098Z,92087.91
2023-05-04T02:47:05.513Z,92091.97
2023-05-04T02:49:37.793Z,92092.25
2023-05-04T02:52:10.100Z,92087.31
2023-05-04T02:54:43.027Z,92090.53
2023-05-04T02:57:15.363Z,92083.53
2023-05-04T02:59:47.670Z,92094.19
2023-05-04T03:02:20.133Z,92098.25
2023-05-04T03:04:52.474Z,92097.66
2023-05-04T03:07:25.353Z,92092.53
2023-05-04T03:09:58.269Z,92100.06
2023-05-04T03:12:30.590Z,92099.09
2023-05-04T03:15:03.509Z,92105.34
2023-05-04T03:17:36.056Z,92101.03
2023-05-04T03:20:10.095Z,92107.78
2023-05-04T03:22:42.431Z,92106.53
2023-05-04T03:25:16.246Z,92109.34
2023-05-04T03:27:48.538Z,92112.41
2023-05-04T03:30:21.060Z,92112.88
2023-05-04T03:32:53.435Z,92110.34
2023-05-04T03:35:25.792Z,92114.88
2023-05-04T03:38:00.874Z,92112.16
2023-05-04T03:40:34.493Z,92106.09
2023-05-04T03:43:06.788Z,92122.22
2023-05-04T03:45:39.157Z,92127.84
2023-05-04T03:48:11.530Z,92126.38
2023-05-04T03:50:43.895Z,92119.19
2023-05-04T03:53:16.250Z,92132.19
2023-05-04T03:55:50.196Z,92134.41
2023-05-04T03:58:22.510Z,92133.66
2023-05-04T04:00:55.116Z,92133.06
2023-05-04T04:03:27.926Z,92129.31
2023-05-04T04:06:02.817Z,92135.81
2023-05-04T04:08:35.232Z,92133.50
2023-05-04T04:11:09.060Z,92134.09
2023-05-04T04:13:41.379Z,92141.34
2023-05-04T04:16:13.812Z,92151.47
2023-05-04T04:18:46.321Z,92142.06
2023-05-04T04:21:18.654Z,92140.25
2023-05-04T04:23:50.904Z,92147.34
2023-05-04T04:26:23.878Z,92138.50
2023-05-04T04:28:56.174Z,92143.84
2023-05-04T04:31:29.754Z,92149.94
2023-05-04T04:34:02.069Z,92152.19
2023-05-04T04:36:34.553Z,92150.63
2023-05-04T04:39:07.421Z,92162.31
2023-05-04T04:41:40.387Z,92165.53
2023-05-04T04:44:12.759Z,92168.63
2023-05-04T04:46:45.844Z,92165.38
2023-05-04T04:49:18.132Z,92175.03
2023-05-04T04:51:50.450Z,92176.50
2023-05-04T04:54:22.730Z,92170.41
2023-05-04T04:56:55.649Z,92175.88
2023-05-04T04:59:27.908Z,92177.38
2023-05-04T05:02:01.136Z,92184.38
2023-05-04T05:04:33.459Z,92182.53
2023-05-04T05:07:08.226Z,92185.97
2023-05-04T05:09:40.756Z,92183.53
2023-05-04T05:12:13.725Z,92194.91
2023-05-04T05:14:46.631Z,92191.59
2023-05-04T05:17:19.641Z,92195.88
2023-05-04T05:19:51.921Z,92185.69
2023-05-04T05:22:24.373Z,92196.72
2023-05-04T05:24:56.671Z,92191.69
2023-05-04T05:27:29.622Z,92195.53
2023-05-04T05:30:03.062Z,92203.97
2023-05-04T05:32:37.137Z,92204.53
2023-05-04T05:35:09.919Z,92204.81
2023-05-04T05:37:42.263Z,92205.31
2023-05-04T05:40:14.708Z,92210.75
2023-05-04T05:42:47.727Z,92209.41
2023-05-04T05:45:20.034Z,92213.88
2023-05-04T05:47:52.314Z,92211.44
2023-05-04T05:50:24.724Z,92215.22
2023-05-04T05:52:57.000Z,92216.91
2023-05-04T05:55:29.321Z,92223.69
2023-05-04T05:58:02.575Z,92219.72
2023-05-04T06:00:34.843Z,92223.88
2023-05-04T06:03:07.250Z,92226.28
2023-05-04T06:05:39.894Z,92220.56
2023-05-04T06:08:12.162Z,92226.81
2023-05-04T06:10:44.480Z,92230.69
2023-05-04T06:13:17.672Z,92231.41
2023-05-04T06:15:53.304Z,92232.38
2023-05-04T06:18:25.686Z,92227.63
2023-05-04T06:20:58.918Z,92232.44
2023-05-04T06:23:31.386Z,92230.13
2023-05-04T06:26:05.207Z,92232.16
2023-05-04T06:28:38.201Z,92232.88
2023-05-04T06:31:10.537Z,92232.31
2023-05-04T06:33:43.023Z,92237.09
2023-05-04T06:36:15.548Z,92227.53
2023-05-04T06:38:47.827Z,92232.31
2023-05-04T06:41:20.154Z,92237.38
2023-05-04T06:43:53.236Z,92235.56
2023-05-04T06:46:25.918Z,92234.44
2023-05-04T06:48:58.320Z,92231.63
2023-05-04T06:51:30.774Z,92240.75
2023-05-04T06:54:03.268Z,92230.56
2023-05-04T06:56:35.625Z,92237.31
2023-05-04T06:59:09.309Z,92239.28
2023-05-04T07:01:41.789Z,92245.06
2023-05-04T07:04:15.730Z,92247.09
2023-05-04T07:06:48.095Z,92238.88
2023-05-04T07:09:20.895Z,92243.66
2023-05-04T07:11:53.243Z,92240.91
2023-05-04T07:14:26.359Z,92240.06
2023-05-04T07:17:00.062Z,92245.88
2023-05-04T07:19:32.954Z,92238.72
2023-05-04T07:22:05.301Z,92219.53
2023-05-04T07:24:37.586Z,92245.81
2023-05-04T07:27:10.876Z,92227.13
2023-05-04T07:29:43.902Z,92245.34
2023-05-04T07:32:16.398Z,92248.06
2023-05-04T07:34:48.715Z,92250.63
2023-05-04T07:37:21.092Z,92259.63
2023-05-04T07:39:53.450Z,92247.38
2023-05-04T07:42:27.246Z,92248.16
2023-05-04T07:45:01.107Z,92250.81
2023-05-04T07:47:33.462Z,92252.56
2023-05-04T07:50:07.569Z,92252.03
2023-05-04T07:52:39.975Z,92260.03
2023-05-04T07:55:12.289Z,92265.59
2023-05-04T07:57:44.855Z,92262.44
2023-05-04T08:00:19.906Z,92270.31
2023-05-04T08:02:52.217Z,92268.25
2023-05-04T08:05:24.546Z,92273.66
2023-05-04T08:07:56.803Z,92269.53
2023-05-04T08:10:29.243Z,92272.63
2023-05-04T08:13:02.035Z,92275.03
2023-05-04T08:15:35.120Z,92278.38
2023-05-04T08:18:07.511Z,92276.44
2023-05-04T08:20:40.013Z,92284.50
2023-05-04T08:23:12.383Z,92278.97
2023-05-04T08:25:44.741Z,92282.59
2023-05-04T08:28:17.053Z,92279.72
2023-05-04T08:30:50.448Z,92283.66
2023-05-04T08:33:22.845Z,92284.16
2023-05-04T08:35:55.180Z,92270.84
2023-05-04T08:38:27.636Z,92281.91
2023-05-04T08:41:02.448Z,92285.41
2023-05-04T08:43:35.434Z,92266.00
2023-05-04T08:46:09.951Z,92279.88
2023-05-04T08:48:44.017Z,92268.53
2023-05-04T08:51:17.667Z,92275.06
2023-05-04T08:53:51.374Z,92276.66
2023-05-04T08:56:25.039Z,92269.78
2023-05-04T08:59:01.113Z,92270.16
2023-05-04T09:01:37.581Z,92274.56
2023-05-04T09:04:10.933Z,92271.06
2023-05-04T09:06:43.419Z,92267.47
2023-05-04T09:09:15.830Z,92277.00
2023-05-04T09:11:48.105Z,92276.44
2023-05-04T09:14:22.411Z,92274.38
2023-05-04T09:16:55.944Z,92274.31
2023-05-04T09:19:32.776Z,92270.19
2023-05-04T09:22:14.856Z,92276.44
2023-05-04T09:24:47.168Z,92276.28
2023-05-04T09:27:19.750Z,92277.47
2023-05-04T09:29:55.091Z,92263.34
2023-05-04T09:32:29.271Z,92278.44
2023-05-04T09:35:02.344Z,92271.25
2023-05-04T09:37:43.793Z,92274.06
2023-05-04T09:40:16.102Z,92276.75
2023-05-04T09:42:56.460Z,92272.88
2023-05-04T09:45:39.512Z,92269.13
2023-05-04T09:48:16.920Z,92265.22
2023-05-04T09:50:51.602Z,92264.50
2023-05-04T09:53:25.496Z,92273.81
2023-05-04T09:56:08.746Z,92269.31
2023-05-04T09:58:42.446Z,92248.81
2023-05-04T10:01:15.680Z,92266.66
2023-05-04T10:03:48.681Z,92263.66
2023-05-04T10:06:21.223Z,92264.72
2023-05-04T10:08:53.596Z,92258.84
2023-05-04T10:11:26.163Z,92248.81
2023-05-04T10:13:58.550Z,92253.41
2023-05-04T10:16:44.801Z,92256.88
2023-05-04T10:19:56.669Z,92259.91
2023-05-04T10:22:42.093Z,92256.41
2023-05-04T10:25:34.707Z,92263.34
2023-05-04T10:28:18.772Z,92255.22
2023-05-04T10:30:56.257Z,92260.16
2023-05-04T10:33:38.386Z,92254.47
2023-05-04T10:36:11.706Z,92247.03
2023-05-04T10:38:44.081Z,92259.06
2023-05-04T10:41:17.470Z,92257.88
2023-05-04T10:43:52.692Z,92258.22
2023-05-04T10:46:24.974Z,92260.88
2023-05-04T10:48:57.406Z,92255.34
2023-05-04T10:51:42.389Z,92251.97
2023-05-04T10:54:21.156Z,92255.19
2023-05-04T10:57:02.870Z,92260.44
2023-05-04T10:59:36.866Z,92248.75
2023-05-04T11:02:10.434Z,92256.31
2023-05-04T11:04:42.722Z,92253.97
2023-05-04T11:07:15.636Z,92249.16
2023-05-04T11:09:47.939Z,92249.69
2023-05-04T11:12:20.696Z,92254.28
2023-05-04T11:15:04.093Z,92245.84
2023-05-04T11:17:45.163Z,92253.25
2023-05-04T11:20:22.053Z,92252.34
2023-05-04T11:22:55.107Z,92258.84
2023-05-04T11:25:28.410Z,92258.59
2023-05-04T11:28:00.859Z,92258.44
2023-05-04T11:30:34.439Z,92249.13
2023-05-04T11:33:11.524Z,92255.97
2023-05-04T11:35:44.862Z,92248.88
2023-05-04T11:38:19.657Z,92245.59
2023-05-04T11:40:52.066Z,92252.31
2023-05-04T11:43:24.504Z,92242.25
2023-05-04T11:46:00.201Z,92252.41
2023-05-04T11:48:34.461Z,92237.13
2023-05-04T11:51:07.184Z,92248.09
2023-05-04T11:53:40.973Z,92242.22
2023-05-04T11:56:13.277Z,92246.31
2023-05-04T11:58:45.548Z,92249.38
2023-05-04T12:01:17.849Z,92248.56
2023-05-04T12:03:54.640Z,92241.47
2023-05-04T12:06:33.480Z,92250.78
2023-05-04T12:09:06.662Z,92250.91
2023-05-04T12:11:39.990Z,92250.53
2023-05-04T12:14:13.358Z,92247.00
2023-05-04T12:16:54.315Z,92246.63
2023-05-04T12:19:26.627Z,92236.50
2023-05-04T12:21:59.017Z,92241.06
2023-05-04T12:24:32.172Z,92234.38
2023-05-04T12:27:04.673Z,92240.50
2023-05-04T12:29:36.949Z,92229.91
2023-05-04T12:32:09.364Z,92233.41
2023-05-04T12:34:41.728Z,92229.25
2023-05-04T12:37:14.020Z,92225.94
2023-05-04T12:39:46.978Z,92231.63
2023-05-04T12:42:19.253Z,92223.13
2023-05-04T12:44:51.915Z,92212.09
2023-05-04T12:47:25.424Z,92227.16
2023-05-04T12:49:57.742Z,92216.94
2023-05-04T12:52:30.237Z,92218.41
2023-05-04T12:55:03.656Z,92212.53
2023-05-04T12:57:36.917Z,92212.00
2023-05-04T13:00:10.767Z,92221.56
2023-05-04T13:02:43.693Z,92213.72
2023-05-04T13:05:17.768Z,92219.34
2023-05-04T13:07:50.027Z,92211.81
2023-05-04T13:10:24.372Z,92210.88
2023-05-04T13:13:04.373Z,92214.69
2023-05-04T13:15:36.715Z,92214.31
2023-05-04T13:18:09.141Z,92209.91
2023-05-04T13:20:41.444Z,92208.16
2023-05-04T13:23:13.753Z,92206.03
2023-05-04T13:25:46.726Z,92213.03
2023-05-04T13:28:19.258Z,92207.66
2023-05-04T13:30:51.994Z,92204.53
2023-05-04T13:33:29.876Z,92197.84
2023-05-04T13:36:03.002Z,92197.50
2023-05-04T13:38:35.311Z,92198.97
2023-05-04T13:41:08.304Z,92193.03
2023-05-04T13:43:40.650Z,92208.09
2023-05-04T13:46:12.951Z,92210.47
2023-05-04T13:48:45.300Z,92215.75
2023-05-04T13:51:20.389Z,92222.72
2023-05-04T13:53:52.678Z,92216.97
2023-05-04T13:56:25.747Z,92213.91
2023-05-04T13:58:58.080Z,92210.53
2023-05-04T14:01:30.580Z,92208.81
2023-05-04T14:04:03.138Z,92205.59
2023-05-04T14:06:35.475Z,92211.81
2023-05-04T14:09:08.928Z,92215.47
2023-05-04T14:11:41.896Z,92221.03
2023-05-04T14:14:14.314Z,92207.06
2023-05-04T14:16:46.780Z,92215.84
2023-05-04T14:19:19.086Z,92211.88
2023-05-04T14:21:51.332Z,92218.44
2023-05-04T14:24:24.606Z,92214.81
2023-05-04T14:26:57.524Z,92222.19
2023-05-04T14:29:29.819Z,92223.44
2023-05-04T14:32:02.136Z,92218.84
2023-05-04T14:34:35.371Z,92217.91
2023-05-04T14:37:07.640Z,92216.97
2023-05-04T14:39:40.024Z,92214.69
2023-05-04T14:42:12.959Z,92208.53
2023-05-04T14:44:45.232Z,92208.03
2023-05-04T14:47:18.495Z,92216.53
2023-05-04T14:49:51.181Z,92212.22
2023-05-04T14:52:23.470Z,92211.28
2023-05-04T14:54:55.724Z,92213.91
2023-05-04T14:57:28.649Z,92221.94
2023-05-04T15:00:07.158Z,92218.38
2023-05-04T15:02:39.795Z,92212.38
2023-05-04T15:05:12.274Z,92218.84
2023-05-04T15:07:44.569Z,92215.88
2023-05-04T15:10:16.998Z,92215.16
2023-05-04T15:12:50.491Z,92219.75
2023-05-04T15:15:22.868Z,92216.22
2023-05-04T15:17:55.217Z,92218.69
2023-05-04T15:20:27.746Z,92212.22
2023-05-04T15:23:09.860Z,92210.81
2023-05-04T15:25:42.291Z,92208.22
2023-05-04T15:28:15.264Z,92225.88
2023-05-04T15:30:47.532Z,92223.72
2023-05-04T15:33:19.884Z,92221.50
2023-05-04T15:35:52.194Z,92214.56
2023-05-04T15:38:27.801Z,92222.41
2023-05-04T15:41:00.189Z,92221.66
2023-05-04T15:43:33.691Z,92214.88
2023-05-04T15:46:05.981Z,92209.66
2023-05-04T15:48:38.299Z,92214.13
2023-05-04T15:51:11.102Z,92210.03
2023-05-04T15:53:43.569Z,92220.13
2023-05-04T15:56:15.968Z,92221.16
2023-05-04T15:58:48.959Z,92222.56
2023-05-04T16:01:21.325Z,92220.41
2023-05-04T16:03:54.798Z,92228.09
2023-05-04T16:06:27.320Z,92219.13
2023-05-04T16:08:59.958Z,92221.94
2023-05-04T16:11:32.973Z,92222.56
2023-05-04T16:14:05.961Z,92227.13
2023-05-04T16:16:38.355Z,92228.31
2023-05-04T16:19:11.767Z,92229.56
2023-05-04T16:21:44.264Z,92231.38
2023-05-04T16:24:16.569Z,92240.75
2023-05-04T16:26:49.150Z,92232.25
2023-05-04T16:29:22.488Z,92232.63
2023-05-04T16:31:55.302Z,92230.81
2023-05-04T16:34:27.567Z,92232.44
2023-05-04T16:37:00.915Z,92237.25
2023-05-04T16:39:33.896Z,92233.72
2023-05-04T16:42:06.234Z,92244.00
2023-05-04T16:44:39.215Z,92242.28
2023-05-04T16:47:11.534Z,92248.47
2023-05-04T16:49:43.866Z,92249.22
2023-05-04T16:52:16.185Z,92254.16
2023-05-04T16:54:48.470Z,92255.81
2023-05-04T16:57:20.813Z,92259.78
2023-05-04T16:59:54.645Z,92256.53
2023-05-04T17:02:27.046Z,92260.00
2023-05-04T17:04:59.337Z,92261.69
2023-05-04T17:07:31.873Z,92268.44
2023-05-04T17:10:04.752Z,92254.38
2023-05-04T17:12:37.454Z,92252.56
2023-05-04T17:15:11.691Z,92276.22
2023-05-04T17:17:44.141Z,92276.56
2023-05-04T17:20:16.611Z,92273.44
2023-05-04T17:22:50.706Z,92275.03
2023-05-04T17:25:23.516Z,92278.50
2023-05-04T17:27:55.846Z,92286.22
2023-05-04T17:30:28.807Z,92288.47
2023-05-04T17:33:08.392Z,92288.09
2023-05-04T17:35:40.762Z,92288.09
2023-05-04T17:38:13.055Z,92295.81
2023-05-04T17:40:45.341Z,92290.59
2023-05-04T17:43:17.643Z,92295.81
2023-05-04T17:45:50.661Z,92299.59
2023-05-04T17:48:23.509Z,92304.03
2023-05-04T17:50:55.882Z,92310.03
2023-05-04T17:53:29.071Z,92310.13
2023-05-04T17:56:01.424Z,92310.31
2023-05-04T17:58:33.918Z,92307.28
2023-05-04T18:01:06.908Z,92314.19
2023-05-04T18:03:39.445Z,92325.56
2023-05-04T18:06:12.002Z,92321.31
2023-05-04T18:08:44.314Z,92328.69
2023-05-04T18:11:16.611Z,92323.56
2023-05-04T18:13:50.152Z,92328.84
2023-05-04T18:16:23.766Z,92327.59
2023-05-04T18:18:58.329Z,92335.75
2023-05-04T18:21:30.901Z,92337.09
2023-05-04T18:24:03.374Z,92334.56
2023-05-04T18:26:35.770Z,92333.03
2023-05-04T18:29:18.435Z,92329.72
2023-05-04T18:31:52.528Z,92336.00
2023-05-04T18:34:24.845Z,92337.44
2023-05-04T18:36:57.109Z,92335.56
2023-05-04T18:39:29.406Z,92334.56
2023-05-04T18:42:01.934Z,92341.09
2023-05-04T18:44:34.368Z,92333.19
2023-05-04T18:47:07.897Z,92337.56
2023-05-04T18:49:40.584Z,92345.59
2023-05-04T18:52:12.814Z,92342.75
2023-05-04T18:54:45.493Z,92347.97
2023-05-04T18:57:17.851Z,92352.13
2023-05-04T18:59:50.204Z,92358.88
2023-05-04T19:02:24.214Z,92368.00
2023-05-04T19:04:56.581Z,92369.91
2023-05-04T19:07:28.936Z,92361.63
2023-05-04T19:10:01.952Z,92369.00
2023-05-04T19:12:34.349Z,92375.16
2023-05-04T19:15:07.806Z,92376.53
2023-05-04T19:17:40.807Z,92376.59
2023-05-04T19:20:13.448Z,92385.69
2023-05-04T19:22:45.725Z,92383.28
2023-05-04T19:25:33.284Z,92388.78
2023-05-04T19:28:08.316Z,92381.53
2023-05-04T19:30:40.981Z,92381.44
2023-05-04T19:33:14.203Z,92389.63
2023-05-04T19:35:46.978Z,92387.56
2023-05-04T19:38:19.255Z,92381.44
2023-05-04T19:40:51.703Z,92387.44
2023-05-04T19:43:23.983Z,92385.84
2023-05-04T19:45:57.362Z,92392.66
2023-05-04T19:48:30.422Z,92394.72
2023-05-04T19:51:02.860Z,92396.03
2023-05-04T19:53:35.182Z,92394.94
2023-05-04T19:56:07.478Z,92395.41
2023-05-04T19:58:39.738Z,92382.75
2023-05-04T20:01:12.015Z,92392.59
2023-05-04T20:03:44.960Z,92394.72
2023-05-04T20:06:17.263Z,92391.22
2023-05-04T20:08:49.566Z,92382.66
2023-05-04T20:11:22.534Z,92394.72
2023-05-04T20:13:55.750Z,92388.59
2023-05-04T20:16:28.552Z,92397.41
2023-05-04T20:19:03.781Z,92396.34
2023-05-04T20:21:36.439Z,92395.91
2023-05-04T20:24:09.142Z,92400.84
2023-05-04T20:26:41.453Z,92394.53
2023-05-04T20:29:13.721Z,92399.53
2023-05-04T20:31:46.028Z,92406.81
2023-05-04T20:34:19.251Z,92403.44
2023-05-04T20:36:51.558Z,92403.94
2023-05-04T20:39:23.914Z,92404.78
2023-05-04T20:41:56.379Z,92395.81
2023-05-04T20:44:28.685Z,92396.56
2023-05-04T20:47:01.830Z,92396.88
2023-05-04T20:49:34.762Z,92397.97
2023-05-04T20:52:07.056Z,92402.34
2023-05-04T20:54:39.341Z,92394.81
2023-05-04T20:57:11.671Z,92394.53
2023-05-04T20:59:44.028Z,92394.16
2023-05-04T21:02:16.354Z,92395.88
2023-05-04T21:04:49.254Z,92394.28
2023-05-04T21:07:21.526Z,92398.06
2023-05-04T21:09:56.442Z,92400.75
2023-05-04T21:12:28.936Z,92404.53
2023-05-04T21:15:01.381Z,92402.63
2023-05-04T21:17:33.781Z,92407.63
2023-05-04T21:20:08.559Z,92407.38
2023-05-04T21:22:41.078Z,92408.66
2023-05-04T21:25:13.496Z,92421.09
2023-05-04T21:27:45.755Z,92419.94
2023-05-04T21:30:18.138Z,92418.66
2023-05-04T21:32:50.677Z,92415.56
2023-05-04T21:35:23.898Z,92419.81
2023-05-04T21:37:56.412Z,92422.19
2023-05-04T21:40:28.762Z,92428.09
2023-05-04T21:43:01.629Z,92426.19
2023-05-04T21:45:33.976Z,92432.03
2023-05-04T21:48:06.611Z,92436.25
2023-05-04T21:50:39.857Z,92436.75
2023-05-04T21:53:12.155Z,92421.94
2023-05-04T21:55:44.471Z,92436.34
2023-05-04T21:58:16.840Z,92427.00
2023-05-04T22:00:49.146Z,92427.66
2023-05-04T22:03:21.469Z,92432.13
2023-05-04T22:05:56.842Z,92433.25
2023-05-04T22:08:29.223Z,92435.28
2023-05-04T22:11:02.012Z,92431.44
2023-05-04T22:13:34.332Z,92424.41
2023-05-04T22:16:08.229Z,92414.56
2023-05-04T22:18:40.741Z,92418.72
2023-05-04T22:21:13.686Z,92412.47
2023-05-04T22:23:46.030Z,92411.88
2023-05-04T22:26:18.292Z,92404.38
2023-05-04T22:28:50.588Z,92399.94
2023-05-04T22:31:22.976Z,92400.44
2023-05-04T22:33:55.429Z,92401.22
2023-05-04T22:36:28.391Z,92396.53
2023-05-04T22:39:01.108Z,92390.81
2023-05-04T22:41:33.391Z,92391.81
2023-05-04T22:44:06.662Z,92392.59
2023-05-04T22:46:39.019Z,92392.59
2023-05-04T22:49:11.270Z,92395.03
2023-05-04T22:51:44.490Z,92387.75
2023-05-04T22:54:16.771Z,92389.88
2023-05-04T22:56:49.005Z,92386.50
2023-05-04T22:59:21.258Z,92376.94
2023-05-04T23:01:53.617Z,92376.66
2023-05-04T23:04:25.917Z,92379.53
2023-05-04T23:06:58.947Z,92382.88
2023-05-04T23:09:32.396Z,92383.19
2023-05-04T23:12:05.001Z,92375.88
2023-05-04T23:14:37.529Z,92376.38
2023-05-04T23:17:10.209Z,92375.34
2023-05-04T23:19:42.457Z,92377.44
2023-05-04T23:22:15.384Z,92373.50
2023-05-04T23:24:47.626Z,92368.03
2023-05-04T23:27:19.919Z,92363.31
2023-05-04T23:29:52.313Z,92367.22
2023-05-04T23:32:24.805Z,92366.50
2023-05-04T23:34:57.278Z,92361.28
2023-05-04T23:37:31.295Z,92354.06
2023-05-04T23:40:04.588Z,92350.19
2023-05-04T23:42:36.995Z,92355.97
2023-05-04T23:45:10.943Z,92352.38
2023-05-04T23:47:43.307Z,92356.03
2023-05-04T23:50:15.966Z,92353.41
2023-05-04T23:52:48.891Z,92358.06
2023-05-04T23:55:21.203Z,92361.41
2023-05-04T23:57:53.435Z,92353.09
